createdAt,value
2023-05-19T00:01:48.169Z,15.60
2023-05-19T00:04:16.509Z,15.40
2023-05-19T00:06:46.579Z,15.60
2023-05-19T00:09:13.984Z,15.90
2023-05-19T00:11:41.395Z,15.60
2023-05-19T00:14:09.991Z,15.60
2023-05-19T00:16:38.042Z,15.70
2023-05-19T00:19:06.504Z,16.00
2023-05-19T00:21:33.925Z,16.10
2023-05-19T00:24:01.279Z,16.00
2023-05-19T00:26:28.520Z,16.00
2023-05-19T00:28:55.755Z,15.80
2023-05-19T00:31:23.065Z,15.70
2023-05-19T00:33:50.437Z,15.30
2023-05-19T00:36:17.767Z,15.30
2023-05-19T00:38:44.963Z,15.20
2023-05-19T00:41:12.273Z,15.40
2023-05-19T00:43:39.545Z,15.20
2023-05-19T00:46:07.515Z,15.30
2023-05-19T00:48:34.847Z,15.10
2023-05-19T00:51:04.484Z,15.00
2023-05-19T00:53:33.119Z,15.30
2023-05-19T00:56:01.789Z,15.30
2023-05-19T00:58:30.680Z,15.30
2023-05-19T01:01:07.292Z,15.40
2023-05-19T01:03:36.103Z,15.50
2023-05-19T01:06:07.292Z,15.50
2023-05-19T01:08:36.241Z,15.60
2023-05-19T01:11:04.525Z,15.50
2023-05-19T01:13:32.088Z,15.20
2023-05-19T01:15:59.320Z,15.10
2023-05-19T01:18:32.594Z,15.20
2023-05-19T01:21:16.019Z,15.20
2023-05-19T01:23:57.144Z,15.40
2023-05-19T01:27:01.677Z,15.20
2023-05-19T01:29:47.756Z,15.50
2023-05-19T01:32:19.353Z,15.50
2023-05-19T01:34:47.376Z,15.70
2023-05-19T01:37:15.719Z,15.40
2023-05-19T01:39:44.415Z,15.50
2023-05-19T01:42:12.832Z,15.40
2023-05-19T01:44:40.253Z,15.60
2023-05-19T01:47:07.888Z,15.30
2023-05-19T01:49:35.167Z,15.10
2023-05-19T01:52:02.533Z,15.00
2023-05-19T01:54:29.773Z,14.90
2023-05-19T01:57:15.453Z,15.20
2023-05-19T02:00:05.453Z,15.00
2023-05-19T02:02:42.092Z,14.90
2023-05-19T02:05:33.034Z,14.70
2023-05-19T02:08:05.394Z,15.10
2023-05-19T02:10:34.287Z,14.80
2023-05-19T02:13:05.053Z,14.70
2023-05-19T02:15:44.245Z,14.80
2023-05-19T02:18:12.119Z,14.60
2023-05-19T02:20:40.037Z,14.50
2023-05-19T02:23:07.256Z,14.40
2023-05-19T02:25:34.516Z,14.30
2023-05-19T02:28:01.786Z,14.10
2023-05-19T02:30:29.101Z,14.30
2023-05-19T02:32:56.410Z,14.20
2023-05-19T02:35:23.629Z,14.50
2023-05-19T02:37:51.614Z,14.60
2023-05-19T02:40:19.196Z,14.60
2023-05-19T02:42:46.412Z,14.80
2023-05-19T02:45:13.606Z,14.50
2023-05-19T02:47:41.537Z,14.40
2023-05-19T02:50:09.253Z,14.00
2023-05-19T02:52:36.491Z,14.00
2023-05-19T02:55:03.785Z,13.90
2023-05-19T02:57:31.794Z,13.90
2023-05-19T02:59:59.188Z,13.90
2023-05-19T03:02:26.595Z,14.00
2023-05-19T03:04:55.006Z,14.00
2023-05-19T03:07:25.169Z,14.20
2023-05-19T03:09:52.949Z,14.20
2023-05-19T03:12:20.680Z,14.20
2023-05-19T03:14:48.109Z,14.10
2023-05-19T03:17:15.420Z,14.10
2023-05-19T03:19:42.654Z,14.20
2023-05-19T03:22:09.861Z,13.80
2023-05-19T03:24:37.062Z,13.50
2023-05-19T03:27:05.886Z,13.60
2023-05-19T03:29:33.213Z,13.60
2023-05-19T03:32:00.467Z,13.80
2023-05-19T03:34:27.759Z,13.70
2023-05-19T03:36:55.012Z,13.60
2023-05-19T03:39:22.269Z,13.60
2023-05-19T03:41:49.840Z,13.50
2023-05-19T03:44:17.039Z,13.60
2023-05-19T03:46:44.316Z,13.70
2023-05-19T03:49:11.803Z,13.70
2023-05-19T03:51:39.350Z,13.60
2023-05-19T03:54:06.743Z,13.60
2023-05-19T03:56:34.143Z,13.60
2023-05-19T03:59:01.433Z,13.90
2023-05-19T04:01:28.685Z,13.80
2023-05-19T04:03:55.964Z,13.70
2023-05-19T04:06:23.386Z,14.00
2023-05-19T04:08:50.808Z,14.00
2023-05-19T04:11:19.974Z,13.80
2023-05-19T04:13:47.253Z,13.60
2023-05-19T04:16:14.891Z,13.80
2023-05-19T04:18:42.579Z,14.00
2023-05-19T04:21:09.824Z,13.70
2023-05-19T04:23:37.101Z,13.70
2023-05-19T04:26:06.746Z,13.40
2023-05-19T04:28:36.676Z,13.70
2023-05-19T04:31:04.044Z,13.50
2023-05-19T04:33:31.273Z,13.40
2023-05-19T04:35:58.518Z,13.90
2023-05-19T04:38:25.816Z,14.00
2023-05-19T04:40:53.150Z,14.00
2023-05-19T04:43:22.232Z,13.60
2023-05-19T04:45:51.410Z,13.90
2023-05-19T04:48:19.072Z,13.10
2023-05-19T04:50:48.822Z,13.90
2023-05-19T04:53:16.278Z,14.10
2023-05-19T04:55:44.068Z,13.90
2023-05-19T04:58:11.347Z,14.20
2023-05-19T05:00:38.641Z,14.00
2023-05-19T05:03:07.104Z,14.40
2023-05-19T05:05:35.178Z,13.60
2023-05-19T05:08:03.158Z,14.30
2023-05-19T05:10:30.527Z,14.30
2023-05-19T05:12:58.222Z,14.10
2023-05-19T05:15:28.616Z,14.50
2023-05-19T05:17:56.264Z,14.90
2023-05-19T05:20:23.994Z,14.40
2023-05-19T05:22:51.457Z,14.40
2023-05-19T05:25:19.187Z,14.70
2023-05-19T05:27:46.707Z,14.70
2023-05-19T05:30:14.100Z,15.00
2023-05-19T05:32:41.427Z,14.70
2023-05-19T05:35:09.239Z,15.10
2023-05-19T05:37:36.433Z,14.60
2023-05-19T05:40:04.718Z,15.00
2023-05-19T05:42:31.944Z,15.10
2023-05-19T05:44:59.194Z,15.20
2023-05-19T05:47:26.697Z,15.20
2023-05-19T05:49:54.202Z,15.00
2023-05-19T05:52:22.351Z,15.10
2023-05-19T05:54:49.934Z,15.40
2023-05-19T05:57:17.307Z,15.30
2023-05-19T05:59:46.988Z,15.10
2023-05-19T06:02:14.220Z,15.10
2023-05-19T06:04:41.751Z,15.40
2023-05-19T06:07:09.001Z,15.30
2023-05-19T06:09:36.553Z,15.60
2023-05-19T06:12:04.032Z,15.50
2023-05-19T06:14:31.264Z,15.60
2023-05-19T06:16:58.450Z,15.60
2023-05-19T06:19:25.751Z,15.50
2023-05-19T06:21:53.028Z,15.50
2023-05-19T06:24:20.234Z,15.50
2023-05-19T06:26:47.510Z,15.60
2023-05-19T06:29:14.722Z,15.70
2023-05-19T06:31:41.969Z,15.30
2023-05-19T06:34:12.284Z,15.80
2023-05-19T06:36:41.383Z,15.50
2023-05-19T06:39:08.631Z,15.80
2023-05-19T06:41:35.846Z,15.90
2023-05-19T06:44:03.769Z,16.40
2023-05-19T06:46:31.203Z,16.70
2023-05-19T06:48:58.418Z,16.80
2023-05-19T06:51:25.637Z,16.50
2023-05-19T06:53:52.971Z,16.50
2023-05-19T06:56:21.539Z,16.40
2023-05-19T06:58:48.775Z,16.30
2023-05-19T07:01:16.159Z,16.30
2023-05-19T07:03:43.528Z,16.60
2023-05-19T07:06:11.052Z,16.50
2023-05-19T07:08:38.317Z,16.40
2023-05-19T07:11:05.807Z,16.70
2023-05-19T07:13:33.051Z,16.30
2023-05-19T07:16:00.416Z,16.60
2023-05-19T07:18:29.914Z,16.80
2023-05-19T07:20:58.319Z,17.00
2023-05-19T07:23:25.586Z,17.00
2023-05-19T07:25:56.979Z,17.00
2023-05-19T07:28:24.484Z,16.70
2023-05-19T07:30:51.992Z,17.20
2023-05-19T07:33:19.236Z,16.80
2023-05-19T07:35:46.599Z,16.60
2023-05-19T07:38:13.858Z,16.60
2023-05-19T07:40:41.080Z,17.20
2023-05-19T07:43:08.325Z,16.50
2023-05-19T07:45:35.670Z,16.50
2023-05-19T07:48:03.100Z,16.60
2023-05-19T07:50:30.855Z,17.20
2023-05-19T07:52:58.190Z,16.90
2023-05-19T07:55:26.296Z,17.60
2023-05-19T07:57:53.603Z,18.20
2023-05-19T08:00:21.077Z,17.30
2023-05-19T08:02:48.503Z,17.20
2023-05-19T08:05:15.801Z,17.90
2023-05-19T08:07:43.061Z,18.80
2023-05-19T08:10:10.565Z,20.00
2023-05-19T08:12:37.822Z,20.40
2023-05-19T08:15:06.304Z,20.00
2023-05-19T08:17:33.725Z,19.50
2023-05-19T08:20:00.969Z,19.70
2023-05-19T08:22:28.237Z,19.00
2023-05-19T08:24:55.579Z,20.30
2023-05-19T08:27:22.820Z,20.70
2023-05-19T08:29:50.078Z,20.60
2023-05-19T08:32:17.921Z,20.60
2023-05-19T08:34:45.246Z,20.40
2023-05-19T08:37:12.504Z,20.50
2023-05-19T08:39:39.920Z,21.40
2023-05-19T08:42:10.048Z,22.40
2023-05-19T08:44:39.925Z,21.80
2023-05-19T08:47:12.546Z,21.80
2023-05-19T08:49:44.892Z,22.70
2023-05-19T08:52:33.064Z,21.40
2023-05-19T08:55:06.197Z,21.40
2023-05-19T08:57:34.119Z,21.50
2023-05-19T09:00:03.071Z,23.20
2023-05-19T09:02:30.459Z,23.00
2023-05-19T09:04:59.001Z,23.80
2023-05-19T09:07:39.449Z,23.40
2023-05-19T09:10:08.885Z,22.00
2023-05-19T09:12:37.171Z,20.30
2023-05-19T09:15:07.812Z,19.90
2023-05-19T09:17:36.782Z,20.50
2023-05-19T09:20:08.197Z,21.20
2023-05-19T09:22:36.774Z,20.90
2023-05-19T09:25:04.625Z,21.80
2023-05-19T09:27:33.917Z,21.90
2023-05-19T09:30:12.077Z,20.50
2023-05-19T09:32:39.937Z,20.70
2023-05-19T09:35:10.858Z,19.20
2023-05-19T09:37:41.509Z,19.40
2023-05-19T09:40:11.883Z,19.60
2023-05-19T09:42:41.170Z,19.50
2023-05-19T09:45:11.993Z,19.00
2023-05-19T09:47:42.708Z,19.00
2023-05-19T09:50:14.030Z,19.50
2023-05-19T09:52:44.308Z,19.90
2023-05-19T09:55:13.349Z,19.80
2023-05-19T09:57:41.341Z,19.40
2023-05-19T10:00:17.179Z,19.80
2023-05-19T10:02:46.695Z,19.60
2023-05-19T10:05:17.660Z,20.00
2023-05-19T10:07:45.803Z,19.20
2023-05-19T10:10:14.105Z,19.20
2023-05-19T10:12:42.179Z,19.40
2023-05-19T10:15:13.631Z,18.80
2023-05-19T10:17:42.068Z,19.20
2023-05-19T10:20:11.021Z,19.10
2023-05-19T10:22:39.167Z,18.90
2023-05-19T10:25:07.447Z,18.70
2023-05-19T10:27:58.505Z,19.20
2023-05-19T10:30:46.934Z,18.40
2023-05-19T10:33:18.839Z,18.30
2023-05-19T10:36:21.245Z,18.70
2023-05-19T10:38:53.418Z,19.00
2023-05-19T10:41:46.970Z,18.60
2023-05-19T10:44:23.635Z,18.90
2023-05-19T10:46:51.207Z,18.70
2023-05-19T10:49:24.825Z,19.10
2023-05-19T10:51:59.299Z,18.50
2023-05-19T10:54:47.717Z,18.60
2023-05-19T10:57:16.721Z,18.60
2023-05-19T10:59:47.410Z,18.80
2023-05-19T11:02:38.123Z,18.00
2023-05-19T11:05:14.863Z,18.70
2023-05-19T11:07:44.187Z,18.50
2023-05-19T11:10:11.727Z,19.20
2023-05-19T11:12:43.854Z,19.10
2023-05-19T11:15:13.839Z,19.00
2023-05-19T11:17:42.493Z,19.20
2023-05-19T11:20:21.466Z,18.70
2023-05-19T11:23:08.229Z,18.80
2023-05-19T11:25:48.575Z,19.10
2023-05-19T11:28:26.304Z,18.80
2023-05-19T11:31:45.961Z,18.90
2023-05-19T11:34:35.584Z,18.40
2023-05-19T11:37:33.021Z,19.00
2023-05-19T11:40:33.296Z,19.30
2023-05-19T11:43:01.862Z,19.20
2023-05-19T11:45:31.777Z,19.60
2023-05-19T11:48:03.130Z,19.30
2023-05-19T11:50:32.098Z,19.30
2023-05-19T11:53:01.053Z,19.70
2023-05-19T11:55:28.782Z,19.90
2023-05-19T12:00:34.875Z,19.90
2023-05-19T12:03:02.274Z,20.10
2023-05-19T12:05:29.743Z,20.10
2023-05-19T12:07:57.048Z,20.20
2023-05-19T12:10:30.238Z,20.30
2023-05-19T12:12:58.524Z,19.90
2023-05-19T12:15:26.001Z,19.70
2023-05-19T12:18:01.336Z,19.90
2023-05-19T12:20:32.340Z,19.70
2023-05-19T12:23:00.293Z,20.10
2023-05-19T12:25:28.567Z,20.00
2023-05-19T12:27:59.838Z,20.10
2023-05-19T12:30:31.584Z,19.40
2023-05-19T12:32:59.350Z,19.50
2023-05-19T12:35:28.903Z,19.70
2023-05-19T12:37:56.411Z,19.50
2023-05-19T12:40:23.732Z,19.50
2023-05-19T12:42:53.344Z,19.40
2023-05-19T12:45:22.784Z,19.60
2023-05-19T12:47:51.071Z,19.60
2023-05-19T12:50:18.873Z,19.60
2023-05-19T12:52:53.279Z,19.40
2023-05-19T12:55:21.029Z,19.70
2023-05-19T12:57:57.299Z,19.50
2023-05-19T13:00:28.137Z,19.40
2023-05-19T13:03:05.969Z,19.00
2023-05-19T13:05:43.502Z,18.90
2023-05-19T13:08:12.439Z,19.20
2023-05-19T13:10:40.828Z,19.40
2023-05-19T13:13:08.808Z,19.30
2023-05-19T13:15:39.024Z,19.40
2023-05-19T13:18:08.796Z,19.20
2023-05-19T13:20:40.539Z,19.30
2023-05-19T13:23:10.217Z,19.00
2023-05-19T13:25:37.566Z,19.40
2023-05-19T13:28:05.867Z,19.00
2023-05-19T13:30:34.482Z,18.70
2023-05-19T13:33:02.328Z,19.10
2023-05-19T13:35:29.935Z,18.80
2023-05-19T13:37:57.374Z,19.00
2023-05-19T13:40:28.061Z,18.80
2023-05-19T13:42:55.290Z,18.70
2023-05-19T13:45:22.528Z,19.10
2023-05-19T13:47:49.872Z,19.10
2023-05-19T13:50:17.095Z,18.70
2023-05-19T13:52:44.943Z,18.90
2023-05-19T13:55:12.168Z,18.80
2023-05-19T13:57:40.041Z,18.50
2023-05-19T14:00:10.129Z,18.50
2023-05-19T14:02:38.238Z,18.60
2023-05-19T14:05:06.520Z,18.20
2023-05-19T14:07:35.111Z,17.90
2023-05-19T14:10:05.319Z,18.50
2023-05-19T14:12:41.525Z,18.40
2023-05-19T14:15:19.866Z,18.60
2023-05-19T14:17:48.961Z,18.40
2023-05-19T14:20:16.336Z,18.60
2023-05-19T14:22:43.552Z,18.90
2023-05-19T14:25:10.991Z,18.80
2023-05-19T14:27:40.007Z,18.40
2023-05-19T14:30:08.548Z,18.70
2023-05-19T14:32:36.024Z,18.60
2023-05-19T14:35:03.504Z,18.80
2023-05-19T14:37:31.884Z,18.80
2023-05-19T14:39:59.603Z,18.70
2023-05-19T14:42:26.828Z,18.50
2023-05-19T14:44:54.070Z,18.80
2023-05-19T14:47:21.335Z,18.60
2023-05-19T14:49:48.633Z,18.40
2023-05-19T14:52:16.021Z,18.60
2023-05-19T14:54:43.259Z,18.40
2023-05-19T14:57:10.460Z,18.60
2023-05-19T14:59:38.392Z,18.30
2023-05-19T15:02:06.068Z,18.40
2023-05-19T15:04:33.373Z,18.90
2023-05-19T15:09:30.780Z,18.70
2023-05-19T15:11:58.305Z,18.60
2023-05-19T15:14:27.807Z,18.70
2023-05-19T15:16:55.415Z,18.90
2023-05-19T15:19:22.736Z,19.00
2023-05-19T15:21:50.666Z,19.00
2023-05-19T15:24:17.929Z,18.60
2023-05-19T15:26:45.343Z,18.70
2023-05-19T15:29:12.600Z,18.60
2023-05-19T15:31:39.835Z,18.50
2023-05-19T15:34:07.215Z,18.20
2023-05-19T15:36:34.434Z,18.40
2023-05-19T15:39:01.669Z,18.30
2023-05-19T15:41:28.924Z,18.30
2023-05-19T15:43:56.161Z,18.30
2023-05-19T15:46:23.425Z,18.20
2023-05-19T15:48:50.760Z,18.20
2023-05-19T15:51:18.049Z,18.20
2023-05-19T15:53:45.257Z,17.80
2023-05-19T15:56:13.408Z,18.10
2023-05-19T15:58:40.639Z,18.20
2023-05-19T16:01:08.279Z,18.20
2023-05-19T16:03:35.686Z,18.00
2023-05-19T16:06:03.076Z,17.90
2023-05-19T16:08:30.408Z,18.00
2023-05-19T16:10:57.700Z,18.00
2023-05-19T16:13:24.950Z,17.70
2023-05-19T16:15:52.738Z,17.80
2023-05-19T16:18:20.050Z,17.90
2023-05-19T16:20:47.341Z,17.60
2023-05-19T16:23:14.612Z,17.70
2023-05-19T16:25:41.835Z,17.60
2023-05-19T16:28:09.155Z,17.70
2023-05-19T16:30:37.019Z,17.70
2023-05-19T16:33:04.821Z,17.60
2023-05-19T16:35:32.337Z,17.70
2023-05-19T16:37:59.636Z,17.70
2023-05-19T16:40:28.701Z,17.90
2023-05-19T16:42:57.385Z,18.10
2023-05-19T16:45:26.223Z,18.20
2023-05-19T16:47:53.589Z,18.10
2023-05-19T16:50:20.934Z,18.00
2023-05-19T16:52:48.173Z,18.30
2023-05-19T16:55:19.498Z,17.90
2023-05-19T16:57:47.106Z,18.20
2023-05-19T17:00:15.105Z,18.10
2023-05-19T17:02:42.387Z,18.10
2023-05-19T17:05:09.774Z,18.00
2023-05-19T17:07:36.985Z,18.00
2023-05-19T17:10:04.430Z,18.10
2023-05-19T17:12:31.661Z,18.00
2023-05-19T17:14:58.924Z,18.10
2023-05-19T17:17:26.359Z,18.10
2023-05-19T17:19:53.683Z,17.60
2023-05-19T17:22:20.942Z,17.70
2023-05-19T17:24:48.166Z,17.70
2023-05-19T17:27:15.469Z,17.30
2023-05-19T17:29:42.758Z,17.30
2023-05-19T17:32:10.102Z,17.30
2023-05-19T17:34:37.377Z,17.30
2023-05-19T17:37:04.696Z,17.10
2023-05-19T17:39:31.968Z,16.70
2023-05-19T17:41:59.251Z,17.00
2023-05-19T17:44:26.469Z,17.00
2023-05-19T17:46:54.041Z,17.20
2023-05-19T17:49:22.969Z,16.80
2023-05-19T17:51:50.492Z,17.10
2023-05-19T17:54:18.124Z,17.30
2023-05-19T17:56:46.514Z,17.30
2023-05-19T17:59:13.945Z,17.20
2023-05-19T18:01:41.370Z,17.20
2023-05-19T18:04:09.212Z,17.30
2023-05-19T18:06:38.584Z,17.40
2023-05-19T18:09:09.639Z,17.40
2023-05-19T18:11:37.420Z,17.60
2023-05-19T18:14:04.694Z,17.40
2023-05-19T18:16:32.055Z,17.00
2023-05-19T18:18:59.365Z,17.10
2023-05-19T18:21:26.986Z,17.20
2023-05-19T18:23:54.189Z,17.30
2023-05-19T18:26:21.513Z,16.90
2023-05-19T18:28:48.715Z,17.10
2023-05-19T18:31:19.085Z,17.30
2023-05-19T18:33:47.542Z,17.10
2023-05-19T18:36:18.017Z,17.30
2023-05-19T18:38:47.142Z,17.30
2023-05-19T18:41:14.782Z,17.20
2023-05-19T18:43:42.066Z,17.00
2023-05-19T18:46:09.316Z,17.00
2023-05-19T18:48:36.719Z,16.90
2023-05-19T18:51:04.067Z,16.60
2023-05-19T18:53:34.832Z,16.70
2023-05-19T18:56:03.599Z,17.00
2023-05-19T18:58:30.822Z,17.20
2023-05-19T19:00:58.559Z,17.30
2023-05-19T19:03:26.523Z,17.30
2023-05-19T19:05:57.636Z,17.30
2023-05-19T19:08:25.203Z,17.30
2023-05-19T19:10:53.522Z,17.10
2023-05-19T19:13:21.088Z,17.30
2023-05-19T19:15:48.341Z,16.90
2023-05-19T19:18:15.881Z,16.80
2023-05-19T19:20:43.166Z,16.60
2023-05-19T19:23:10.443Z,17.00
2023-05-19T19:25:37.805Z,17.10
2023-05-19T19:28:05.146Z,16.80
2023-05-19T19:30:32.628Z,16.80
2023-05-19T19:33:00.192Z,17.00
2023-05-19T19:35:27.491Z,16.50
2023-05-19T19:37:54.791Z,16.20
2023-05-19T19:40:23.049Z,16.30
2023-05-19T19:42:50.584Z,16.50
2023-05-19T19:45:18.281Z,16.50
2023-05-19T19:47:45.740Z,16.60
2023-05-19T19:50:13.101Z,16.80
2023-05-19T19:52:40.335Z,16.70
2023-05-19T19:55:08.066Z,16.50
2023-05-19T19:57:35.626Z,16.30
2023-05-19T20:00:08.260Z,16.30
2023-05-19T20:02:41.087Z,16.20
2023-05-19T20:05:13.800Z,16.20
2023-05-19T20:07:41.046Z,16.30
2023-05-19T20:10:08.652Z,16.30
2023-05-19T20:12:35.856Z,15.70
2023-05-19T20:15:03.073Z,15.80
2023-05-19T20:17:30.403Z,15.40
2023-05-19T20:19:58.262Z,15.50
2023-05-19T20:22:25.454Z,15.50
2023-05-19T20:24:52.696Z,15.50
2023-05-19T20:27:19.946Z,15.80
2023-05-19T20:29:47.174Z,15.60
2023-05-19T20:32:14.420Z,15.60
2023-05-19T20:34:41.769Z,15.80
2023-05-19T20:37:09.010Z,15.70
2023-05-19T20:39:36.363Z,15.60
2023-05-19T20:42:03.584Z,15.60
2023-05-19T20:44:31.930Z,15.60
2023-05-19T20:46:59.142Z,16.10
2023-05-19T20:49:26.426Z,16.00
2023-05-19T20:51:53.656Z,15.90
2023-05-19T20:54:21.291Z,15.60
2023-05-19T20:56:48.705Z,15.60
2023-05-19T20:59:15.923Z,15.60
2023-05-19T21:01:43.966Z,15.60
2023-05-19T21:04:11.371Z,15.60
2023-05-19T21:06:38.788Z,15.30
2023-05-19T21:09:06.808Z,14.90
2023-05-19T21:11:34.586Z,15.10
2023-05-19T21:14:04.302Z,15.70
2023-05-19T21:16:32.181Z,15.70
2023-05-19T21:18:59.883Z,15.50
2023-05-19T21:21:27.245Z,15.40
2023-05-19T21:23:54.460Z,15.10
2023-05-19T21:26:22.129Z,15.00
2023-05-19T21:28:49.386Z,14.70
2023-05-19T21:31:16.851Z,14.50
2023-05-19T21:33:44.228Z,14.30
2023-05-19T21:36:11.450Z,14.20
2023-05-19T21:38:38.654Z,14.20
2023-05-19T21:41:05.982Z,14.10
2023-05-19T21:43:33.204Z,14.20
2023-05-19T21:46:00.454Z,14.10
2023-05-19T21:48:27.673Z,14.10
2023-05-19T21:50:57.954Z,14.10
2023-05-19T21:53:25.405Z,14.10
2023-05-19T21:55:52.937Z,14.10
2023-05-19T21:58:20.360Z,14.00
2023-05-19T22:00:57.050Z,13.90
2023-05-19T22:03:24.492Z,13.70
2023-05-19T22:05:52.954Z,13.70
2023-05-19T22:08:24.322Z,13.50
2023-05-19T22:10:52.659Z,13.60
2023-05-19T22:13:20.759Z,13.90
2023-05-19T22:15:48.116Z,13.80
2023-05-19T22:18:15.636Z,13.70
2023-05-19T22:20:43.094Z,13.80
2023-05-19T22:23:10.621Z,13.70
2023-05-19T22:25:37.998Z,13.80
2023-05-19T22:28:07.430Z,13.80
2023-05-19T22:30:41.011Z,13.80
2023-05-19T22:33:09.432Z,13.70
2023-05-19T22:35:36.740Z,13.90
2023-05-19T22:38:03.972Z,14.30
2023-05-19T22:40:32.432Z,14.10
2023-05-19T22:42:59.995Z,14.40
2023-05-19T22:45:27.297Z,14.50
2023-05-19T22:47:55.531Z,14.40
2023-05-19T22:50:22.966Z,14.10
2023-05-19T22:52:50.468Z,13.80
2023-05-19T22:55:17.741Z,13.70
2023-05-19T22:57:45.084Z,13.90
2023-05-19T23:00:18.388Z,14.00
2023-05-19T23:02:45.769Z,13.90
2023-05-19T23:05:13.060Z,14.10
2023-05-19T23:07:40.335Z,14.50
2023-05-19T23:10:07.900Z,14.10
2023-05-19T23:12:35.119Z,13.90
2023-05-19T23:15:02.631Z,13.80
2023-05-19T23:17:29.907Z,14.00
2023-05-19T23:19:57.217Z,14.30
2023-05-19T23:22:24.513Z,14.60
2023-05-19T23:24:51.720Z,14.70
2023-05-19T23:27:18.960Z,14.40
2023-05-19T23:29:50.620Z,14.50
2023-05-19T23:32:17.824Z,14.60
2023-05-19T23:34:46.768Z,14.50
2023-05-19T23:37:13.987Z,14.50
2023-05-19T23:39:41.240Z,14.60
2023-05-19T23:42:08.439Z,14.70
2023-05-19T23:44:35.815Z,14.50
2023-05-19T23:47:03.129Z,14.50
2023-05-19T23:49:30.521Z,14.50
2023-05-19T23:51:57.771Z,14.70
2023-05-19T23:54:25.030Z,14.40
2023-05-19T23:56:52.326Z,14.50
2023-05-19T23:59:19.531Z,14.80
